sensor_id;sensor_type;location;lat;lon;timestamp;temperature;humidity
14014;DHT22;49110;52.584;13.408;2024-01-15T00:00:01;4.90;99.90
14014;DHT22;49110;52.584;13.408;2024-01-15T00:01:04;4.90;99.90
14014;DHT22;49110;52.584;13.408;2024-01-15T00:02:04;4.90;99.90
14014;DHT22;49110;52.584;13.408;2024-01-15T00:03:06;4.90;99.90
14014;DHT22;49110;52.584;13.408;2024-01-15T00:04:06;4.90;99.90
14014;DHT22;49110;52.584;13.408;2024-01-15T00:05:07;4.90;99.90
14014;DHT22;49110;52.584;13.408;2024-01-15T00:06:07;4.90;99.90
14014;DHT22;49110;52.584;13.408;2024-01-15T00:07:09;4.90;99.90
14014;DHT22;49110;52.584;13.408;2024-01-15T00:08:09;4.90;99.90
14014;DHT22;49110;52.584;13.408;2024-01-15T00:09:10;4.90;99.90
14014;DHT22;49110;52.584;13.408;2024-01-15T00:10:11;4.90;99.90
14014;DHT22;49110;52.584;13.408;2024-01-15T00:11:11;4.90;99.90
14014;DHT22;49110;52.584;13.408;2024-01-15T00:12:12;4.90;99.90
14014;DHT22;49110;52.584;13.408;2024-01-15T00:13:12;4.90;99.90
14014;DHT22;49110;52.584;13.408;2024-01-15T00:14:13;4.80;99.90
14014;DHT22;49110;52.584;13.408;2024-01-15T00:15:15;4.90;99.90
14014;DHT22;49110;52.584;13.408;2024-01-15T00:16:18;4.90;99.90
14014;DHT22;49110;52.584;13.408;2024-01-15T00:17:19;4.90;99.90
14014;DHT22;49110;52.584;13.408;2024-01-15T00:18:19;4.90;99.90
14014;DHT22;49110;52.584;13.408;2024-01-15T00:19:21;4.90;99.90
14014;DHT22;49110;52.584;13.408;2024-01-15T00:20:22;4.90;99.90
14014;DHT22;49110;52.584;13.408;2024-01-15T00:21:23;4.90;99.90
14014;DHT22;49110;52.584;13.408;2024-01-15T00:22:25;4.90;99.90
14014;DHT22;49110;52.584;13.408;2024-01-15T00:23:26;4.90;99.90
14014;DHT22;49110;52.584;13.408;2024-01-15T00:24:27;4.80;99.90
14014;DHT22;49110;52.584;13.408;2024-01-15T00:25:28;4.80;99.90
14014;DHT22;49110;52.584;13.408;2024-01-15T00:26:28;4.80;99.90
14014;DHT22;49110;52.584;13.408;2024-01-15T00:27:29;4.80;99.90
14014;DHT22;49110;52.584;13.408;2024-01-15T00:28:30;4.80;99.90
14014;DHT22;49110;52.584;13.408;2024-01-15T00:29:30;4.90;99.90
14014;DHT22;49110;52.584;13.408;2024-01-15T00:30:31;4.90;99.90
14014;DHT22;49110;52.584;13.408;2024-01-15T00:31:31;4.80;99.90
14014;DHT22;49110;52.584;13.408;2024-01-15T00:32:32;4.90;99.90
14014;DHT22;49110;52.584;13.408;2024-01-15T00:33:33;4.90;99.90
14014;DHT22;49110;52.584;13.408;2024-01-15T00:34:33;4.90;99.90
14014;DHT22;49110;52.584;13.408;2024-01-15T00:35:34;4.90;99.90
14014;DHT22;49110;52.584;13.408;2024-01-15T00:36:38;4.80;99.90
14014;DHT22;49110;52.584;13.408;2024-01-15T00:37:38;4.80;99.90
14014;DHT22;49110;52.584;13.408;2024-01-15T00:38:40;4.80;99.90
14014;DHT22;49110;52.584;13.408;2024-01-15T00:39:40;4.80;99.90
14014;DHT22;49110;52.584;13.408;2024-01-15T00:40:41;4.90;99.90
14014;DHT22;49110;52.584;13.408;2024-01-15T00:41:42;4.80;99.90
14014;DHT22;49110;52.584;13.408;2024-01-15T00:42:42;4.90;99.90
14014;DHT22;49110;52.584;13.408;2024-01-15T00:43:44;4.80;99.90
14014;DHT22;49110;52.584;13.408;2024-01-15T00:44:44;4.90;99.90
14014;DHT22;49110;52.584;13.408;2024-01-15T00:45:45;4.80;99.90
14014;DHT22;49110;52.584;13.408;2024-01-15T00:46:46;4.80;99.90
14014;DHT22;49110;52.584;13.408;2024-01-15T00:47:47;4.80;99.90
14014;DHT22;49110;52.584;13.408;2024-01-15T00:48:48;4.80;99.90
14014;DHT22;49110;52.584;13.408;2024-01-15T00:49:48;4.70;99.90
14014;DHT22;49110;52.584;13.408;2024-01-15T00:50:49;4.80;99.90
14014;DHT22;49110;52.584;13.408;2024-01-15T00:51:50;4.80;99.90
14014;DHT22;49110;52.584;13.408;2024-01-15T00:52:50;4.80;99.90
14014;DHT22;49110;52.584;13.408;2024-01-15T00:53:51;4.80;99.90
14014;DHT22;49110;52.584;13.408;2024-01-15T00:54:51;4.80;99.90
14014;DHT22;49110;52.584;13.408;2024-01-15T00:55:52;4.80;99.90
14014;DHT22;49110;52.584;13.408;2024-01-15T00:56:53;4.70;99.90
14014;DHT22;49110;52.584;13.408;2024-01-15T00:57:55;4.80;99.90
14014;DHT22;49110;52.584;13.408;2024-01-15T00:58:55;4.80;99.90
14014;DHT22;49110;52.584;13.408;2024-01-15T00:59:56;4.80;99.90
14014;DHT22;49110;52.584;13.408;2024-01-15T01:00:59;4.80;99.90
14014;DHT22;49110;52.584;13.408;2024-01-15T01:02:00;4.80;99.90
14014;DHT22;49110;52.584;13.408;2024-01-15T01:03:00;4.70;99.90
14014;DHT22;49110;52.584;13.408;2024-01-15T01:04:01;4.70;99.90
14014;DHT22;49110;52.584;13.408;2024-01-15T01:05:02;4.70;99.90
14014;DHT22;49110;52.584;13.408;2024-01-15T01:06:03;4.70;99.90
14014;DHT22;49110;52.584;13.408;2024-01-15T01:07:04;4.70;99.90
14014;DHT22;49110;52.584;13.408;2024-01-15T01:08:05;4.60;99.90
14014;DHT22;49110;52.584;13.408;2024-01-15T01:09:05;4.70;99.90
14014;DHT22;49110;52.584;13.408;2024-01-15T01:10:06;4.70;99.90
14014;DHT22;49110;52.584;13.408;2024-01-15T01:11:07;4.70;99.90
14014;DHT22;49110;52.584;13.408;2024-01-15T01:12:10;4.60;99.90
14014;DHT22;49110;52.584;13.408;2024-01-15T01:13:11;4.50;99.90
14014;DHT22;49110;52.584;13.408;2024-01-15T01:14:12;4.50;99.90
14014;DHT22;49110;52.584;13.408;2024-01-15T01:15:16;4.50;99.90
14014;DHT22;49110;52.584;13.408;2024-01-15T01:16:16;4.50;99.90
14014;DHT22;49110;52.584;13.408;2024-01-15T01:17:19;4.60;99.90
14014;DHT22;49110;52.584;13.408;2024-01-15T01:18:20;4.60;99.90
14014;DHT22;49110;52.584;13.408;2024-01-15T01:20:30;4.60;99.90
14014;DHT22;49110;52.584;13.408;2024-01-15T01:21:31;4.60;99.90
14014;DHT22;49110;52.584;13.408;2024-01-15T01:22:32;4.60;99.90
14014;DHT22;49110;52.584;13.408;2024-01-15T01:23:35;4.60;99.90
14014;DHT22;49110;52.584;13.408;2024-01-15T01:24:36;4.60;99.90
14014;DHT22;49110;52.584;13.408;2024-01-15T01:26:51;4.70;99.90
14014;DHT22;49110;52.584;13.408;2024-01-15T01:29:02;4.50;99.90
14014;DHT22;49110;52.584;13.408;2024-01-15T01:30:03;4.50;99.90
14014;DHT22;49110;52.584;13.408;2024-01-15T01:31:04;4.50;99.90
14014;DHT22;49110;52.584;13.408;2024-01-15T01:32:05;4.50;99.90
14014;DHT22;49110;52.584;13.408;2024-01-15T01:34:16;4.50;99.90
14014;DHT22;49110;52.584;13.408;2024-01-15T01:35:20;4.50;99.90
14014;DHT22;49110;52.584;13.408;2024-01-15T01:36:20;4.50;99.90
14014;DHT22;49110;52.584;13.408;2024-01-15T01:37:24;4.50;99.90
14014;DHT22;49110;52.584;13.408;2024-01-15T01:38:30;4.50;99.90
14014;DHT22;49110;52.584;13.408;2024-01-15T01:40:40;4.50;99.90
14014;DHT22;49110;52.584;13.408;2024-01-15T01:41:41;4.50;99.90
14014;DHT22;49110;52.584;13.408;2024-01-15T01:42:44;4.50;99.90
14014;DHT22;49110;52.584;13.408;2024-01-15T01:43:45;4.50;99.90
14014;DHT22;49110;52.584;13.408;2024-01-15T01:44:46;4.40;99.90
14014;DHT22;49110;52.584;13.408;2024-01-15T01:45:46;4.50;99.90
14014;DHT22;49110;52.584;13.408;2024-01-15T01:46:46;4.40;99.90
14014;DHT22;49110;52.584;13.408;2024-01-15T01:47:47;4.40;99.90
14014;DHT22;49110;52.584;13.408;2024-01-15T01:48:48;4.40;99.90
14014;DHT22;49110;52.584;13.408;2024-01-15T01:49:52;4.40;99.90
14014;DHT22;49110;52.584;13.408;2024-01-15T01:53:11;4.40;99.90
14014;DHT22;49110;52.584;13.408;2024-01-15T01:54:15;4.50;99.90
14014;DHT22;49110;52.584;13.408;2024-01-15T01:59:58;4.50;99.90
14014;DHT22;49110;52.584;13.408;2024-01-15T02:00:59;4.50;99.90
14014;DHT22;49110;52.584;13.408;2024-01-15T02:06:36;4.50;99.90
14014;DHT22;49110;52.584;13.408;2024-01-15T02:07:37;4.40;99.90
14014;DHT22;49110;52.584;13.408;2024-01-15T02:08:38;4.40;99.90
14014;DHT22;49110;52.584;13.408;2024-01-15T02:09:41;4.30;99.90
14014;DHT22;49110;52.584;13.408;2024-01-15T02:10:42;4.30;99.90
14014;DHT22;49110;52.584;13.408;2024-01-15T02:12:53;4.30;99.90
14014;DHT22;49110;52.584;13.408;2024-01-15T02:17:24;4.20;99.90
14014;DHT22;49110;52.584;13.408;2024-01-15T02:18:25;4.30;99.90
14014;DHT22;49110;52.584;13.408;2024-01-15T02:20:36;4.20;99.90
14014;DHT22;49110;52.584;13.408;2024-01-15T02:26:18;4.20;99.90
14014;DHT22;49110;52.584;13.408;2024-01-15T02:30:50;4.30;99.90
14014;DHT22;49110;52.584;13.408;2024-01-15T02:31:51;4.30;99.90
14014;DHT22;49110;52.584;13.408;2024-01-15T02:32:52;4.30;99.90
14014;DHT22;49110;52.584;13.408;2024-01-15T02:33:53;4.30;99.90
14014;DHT22;49110;52.584;13.408;2024-01-15T02:34:53;4.30;99.90
14014;DHT22;49110;52.584;13.408;2024-01-15T02:35:56;4.20;99.90
14014;DHT22;49110;52.584;13.408;2024-01-15T02:36:56;4.30;99.90
14014;DHT22;49110;52.584;13.408;2024-01-15T02:37:57;4.20;99.90
14014;DHT22;49110;52.584;13.408;2024-01-15T02:38:58;4.20;99.90
14014;DHT22;49110;52.584;13.408;2024-01-15T02:39:58;4.20;99.90
14014;DHT22;49110;52.584;13.408;2024-01-15T02:40:59;4.20;99.90
14014;DHT22;49110;52.584;13.408;2024-01-15T02:41:59;4.10;99.90
14014;DHT22;49110;52.584;13.408;2024-01-15T02:43:00;4.10;99.90
14014;DHT22;49110;52.584;13.408;2024-01-15T02:44:00;4.10;99.90
14014;DHT22;49110;52.584;13.408;2024-01-15T02:45:01;4.10;99.90
14014;DHT22;49110;52.584;13.408;2024-01-15T02:46:01;4.10;99.90
14014;DHT22;49110;52.584;13.408;2024-01-15T02:47:02;4.20;99.90
14014;DHT22;49110;52.584;13.408;2024-01-15T02:48:02;4.30;99.90
14014;DHT22;49110;52.584;13.408;2024-01-15T02:49:03;4.30;99.90
14014;DHT22;49110;52.584;13.408;2024-01-15T02:50:04;4.30;99.90
14014;DHT22;49110;52.584;13.408;2024-01-15T02:51:04;4.30;99.90
14014;DHT22;49110;52.584;13.408;2024-01-15T02:52:05;4.40;99.90
14014;DHT22;49110;52.584;13.408;2024-01-15T02:53:06;4.40;99.90
14014;DHT22;49110;52.584;13.408;2024-01-15T02:54:06;4.40;99.90
14014;DHT22;49110;52.584;13.408;2024-01-15T02:55:07;4.40;99.90
14014;DHT22;49110;52.584;13.408;2024-01-15T02:56:08;4.40;99.90
14014;DHT22;49110;52.584;13.408;2024-01-15T02:57:08;4.40;99.90
14014;DHT22;49110;52.584;13.408;2024-01-15T02:58:09;4.40;99.90
14014;DHT22;49110;52.584;13.408;2024-01-15T02:59:09;4.40;99.90
14014;DHT22;49110;52.584;13.408;2024-01-15T03:00:10;4.40;99.90
14014;DHT22;49110;52.584;13.408;2024-01-15T03:01:11;4.40;99.90
14014;DHT22;49110;52.584;13.408;2024-01-15T03:02:12;4.40;99.90
14014;DHT22;49110;52.584;13.408;2024-01-15T03:03:12;4.40;99.90
14014;DHT22;49110;52.584;13.408;2024-01-15T03:04:13;4.40;99.90
14014;DHT22;49110;52.584;13.408;2024-01-15T03:05:13;4.40;99.90
14014;DHT22;49110;52.584;13.408;2024-01-15T03:06:14;4.40;99.90
14014;DHT22;49110;52.584;13.408;2024-01-15T03:07:14;4.40;99.90
14014;DHT22;49110;52.584;13.408;2024-01-15T03:08:15;4.40;99.90
14014;DHT22;49110;52.584;13.408;2024-01-15T03:09:16;4.40;99.90
14014;DHT22;49110;52.584;13.408;2024-01-15T03:10:16;4.40;99.90
14014;DHT22;49110;52.584;13.408;2024-01-15T03:11:17;4.40;99.90
14014;DHT22;49110;52.584;13.408;2024-01-15T03:12:17;4.40;99.90
14014;DHT22;49110;52.584;13.408;2024-01-15T03:13:18;4.40;99.90
14014;DHT22;49110;52.584;13.408;2024-01-15T03:14:19;4.40;99.90
14014;DHT22;49110;52.584;13.408;2024-01-15T03:15:20;4.40;99.90
14014;DHT22;49110;52.584;13.408;2024-01-15T03:16:21;4.50;99.90
14014;DHT22;49110;52.584;13.408;2024-01-15T03:17:21;4.50;99.90
14014;DHT22;49110;52.584;13.408;2024-01-15T03:18:22;4.50;99.90
14014;DHT22;49110;52.584;13.408;2024-01-15T03:19:22;4.50;99.90
14014;DHT22;49110;52.584;13.408;2024-01-15T03:20:22;4.50;99.90
14014;DHT22;49110;52.584;13.408;2024-01-15T03:21:23;4.40;99.90
14014;DHT22;49110;52.584;13.408;2024-01-15T03:22:23;4.40;99.90
14014;DHT22;49110;52.584;13.408;2024-01-15T03:23:24;4.40;99.90
14014;DHT22;49110;52.584;13.408;2024-01-15T03:24:24;4.40;99.90
14014;DHT22;49110;52.584;13.408;2024-01-15T03:25:25;4.50;99.90
14014;DHT22;49110;52.584;13.408;2024-01-15T03:26:25;4.40;99.90
14014;DHT22;49110;52.584;13.408;2024-01-15T03:27:26;4.40;99.90
14014;DHT22;49110;52.584;13.408;2024-01-15T03:28:26;4.40;99.90
14014;DHT22;49110;52.584;13.408;2024-01-15T03:29:27;4.40;99.90
14014;DHT22;49110;52.584;13.408;2024-01-15T03:30:27;4.40;99.90
14014;DHT22;49110;52.584;13.408;2024-01-15T03:31:27;4.40;99.90
14014;DHT22;49110;52.584;13.408;2024-01-15T03:32:28;4.40;99.90
14014;DHT22;49110;52.584;13.408;2024-01-15T03:33:28;4.40;99.90
14014;DHT22;49110;52.584;13.408;2024-01-15T03:34:29;4.40;99.90
14014;DHT22;49110;52.584;13.408;2024-01-15T03:35:29;4.50;99.90
14014;DHT22;49110;52.584;13.408;2024-01-15T03:36:31;4.50;99.90
14014;DHT22;49110;52.584;13.408;2024-01-15T03:37:31;4.50;99.90
14014;DHT22;49110;52.584;13.408;2024-01-15T03:38:32;4.40;99.90
14014;DHT22;49110;52.584;13.408;2024-01-15T03:39:32;4.40;99.90
14014;DHT22;49110;52.584;13.408;2024-01-15T03:40:32;4.40;99.90
14014;DHT22;49110;52.584;13.408;2024-01-15T03:41:33;4.40;99.90
14014;DHT22;49110;52.584;13.408;2024-01-15T03:42:33;4.40;99.90
14014;DHT22;49110;52.584;13.408;2024-01-15T03:43:34;4.40;99.90
14014;DHT22;49110;52.584;13.408;2024-01-15T03:44:34;4.40;99.90
14014;DHT22;49110;52.584;13.408;2024-01-15T03:45:35;4.40;99.90
14014;DHT22;49110;52.584;13.408;2024-01-15T03:46:35;4.40;99.90
14014;DHT22;49110;52.584;13.408;2024-01-15T03:47:36;4.40;99.90
14014;DHT22;49110;52.584;13.408;2024-01-15T03:48:36;4.40;99.90
14014;DHT22;49110;52.584;13.408;2024-01-15T03:49:36;4.40;99.90
14014;DHT22;49110;52.584;13.408;2024-01-15T03:50:37;4.40;99.90
14014;DHT22;49110;52.584;13.408;2024-01-15T03:51:37;4.40;99.90
14014;DHT22;49110;52.584;13.408;2024-01-15T03:52:38;4.40;99.90
14014;DHT22;49110;52.584;13.408;2024-01-15T03:53:38;4.40;99.90
14014;DHT22;49110;52.584;13.408;2024-01-15T03:54:39;4.40;99.90
14014;DHT22;49110;52.584;13.408;2024-01-15T03:55:40;4.50;99.90
14014;DHT22;49110;52.584;13.408;2024-01-15T03:56:40;4.50;99.90
14014;DHT22;49110;52.584;13.408;2024-01-15T03:57:41;4.50;99.90
14014;DHT22;49110;52.584;13.408;2024-01-15T03:58:41;4.50;99.90
14014;DHT22;49110;52.584;13.408;2024-01-15T03:59:41;4.50;99.90
14014;DHT22;49110;52.584;13.408;2024-01-15T04:00:43;4.50;99.90
14014;DHT22;49110;52.584;13.408;2024-01-15T04:01:50;4.50;99.90
14014;DHT22;49110;52.584;13.408;2024-01-15T04:02:53;4.50;99.90
14014;DHT22;49110;52.584;13.408;2024-01-15T04:03:54;4.50;99.90
14014;DHT22;49110;52.584;13.408;2024-01-15T04:04:55;4.50;99.90
14014;DHT22;49110;52.584;13.408;2024-01-15T04:05:55;4.50;99.90
14014;DHT22;49110;52.584;13.408;2024-01-15T04:06:57;4.50;99.90
14014;DHT22;49110;52.584;13.408;2024-01-15T04:07:57;4.50;99.90
14014;DHT22;49110;52.584;13.408;2024-01-15T04:08:58;4.40;99.90
14014;DHT22;49110;52.584;13.408;2024-01-15T04:09:59;4.40;99.90
14014;DHT22;49110;52.584;13.408;2024-01-15T04:10:59;4.40;99.90
14014;DHT22;49110;52.584;13.408;2024-01-15T04:12:01;4.40;99.90
14014;DHT22;49110;52.584;13.408;2024-01-15T04:13:02;4.40;99.90
14014;DHT22;49110;52.584;13.408;2024-01-15T04:14:03;4.40;99.90
14014;DHT22;49110;52.584;13.408;2024-01-15T04:15:04;4.40;99.90
14014;DHT22;49110;52.584;13.408;2024-01-15T04:16:05;4.40;99.90
14014;DHT22;49110;52.584;13.408;2024-01-15T04:17:05;4.40;99.90
14014;DHT22;49110;52.584;13.408;2024-01-15T04:18:06;4.40;99.90
14014;DHT22;49110;52.584;13.408;2024-01-15T04:19:06;4.50;99.90
14014;DHT22;49110;52.584;13.408;2024-01-15T04:20:07;4.50;99.90
14014;DHT22;49110;52.584;13.408;2024-01-15T04:21:08;4.50;99.90
14014;DHT22;49110;52.584;13.408;2024-01-15T04:22:08;4.50;99.90
14014;DHT22;49110;52.584;13.408;2024-01-15T04:23:09;4.40;99.90
14014;DHT22;49110;52.584;13.408;2024-01-15T04:24:09;4.50;99.90
14014;DHT22;49110;52.584;13.408;2024-01-15T04:25:10;4.50;99.90
14014;DHT22;49110;52.584;13.408;2024-01-15T04:26:10;4.50;99.90
14014;DHT22;49110;52.584;13.408;2024-01-15T04:27:11;4.50;99.90
14014;DHT22;49110;52.584;13.408;2024-01-15T04:28:12;4.50;99.90
14014;DHT22;49110;52.584;13.408;2024-01-15T04:29:12;4.50;99.90
14014;DHT22;49110;52.584;13.408;2024-01-15T04:30:13;4.50;99.90
14014;DHT22;49110;52.584;13.408;2024-01-15T04:31:24;4.50;99.90
14014;DHT22;49110;52.584;13.408;2024-01-15T04:32:25;4.50;99.90
14014;DHT22;49110;52.584;13.408;2024-01-15T04:33:25;4.50;99.90
14014;DHT22;49110;52.584;13.408;2024-01-15T04:34:26;4.40;99.90
14014;DHT22;49110;52.584;13.408;2024-01-15T04:35:26;4.30;99.90
14014;DHT22;49110;52.584;13.408;2024-01-15T04:36:27;4.30;99.90
14014;DHT22;49110;52.584;13.408;2024-01-15T04:37:27;4.40;99.90
14014;DHT22;49110;52.584;13.408;2024-01-15T04:38:28;4.40;99.90
14014;DHT22;49110;52.584;13.408;2024-01-15T04:39:29;4.30;99.90
14014;DHT22;49110;52.584;13.408;2024-01-15T04:40:29;4.40;99.90
14014;DHT22;49110;52.584;13.408;2024-01-15T04:41:30;4.40;99.90
14014;DHT22;49110;52.584;13.408;2024-01-15T04:42:30;4.40;99.90
14014;DHT22;49110;52.584;13.408;2024-01-15T04:43:31;4.40;99.90
14014;DHT22;49110;52.584;13.408;2024-01-15T04:44:31;4.40;99.90
14014;DHT22;49110;52.584;13.408;2024-01-15T04:45:32;4.40;99.90
14014;DHT22;49110;52.584;13.408;2024-01-15T04:46:32;4.40;99.90
14014;DHT22;49110;52.584;13.408;2024-01-15T04:47:32;4.40;99.90
14014;DHT22;49110;52.584;13.408;2024-01-15T04:48:33;4.40;99.90
14014;DHT22;49110;52.584;13.408;2024-01-15T04:49:34;4.40;99.90
14014;DHT22;49110;52.584;13.408;2024-01-15T04:50:34;4.40;99.90
14014;DHT22;49110;52.584;13.408;2024-01-15T04:51:35;4.50;99.90
14014;DHT22;49110;52.584;13.408;2024-01-15T04:52:35;4.40;99.90
14014;DHT22;49110;52.584;13.408;2024-01-15T04:53:36;4.40;99.90
14014;DHT22;49110;52.584;13.408;2024-01-15T04:54:36;4.40;99.90
14014;DHT22;49110;52.584;13.408;2024-01-15T04:55:37;4.40;99.90
14014;DHT22;49110;52.584;13.408;2024-01-15T04:56:37;4.40;99.90
14014;DHT22;49110;52.584;13.408;2024-01-15T04:57:38;4.40;99.90
14014;DHT22;49110;52.584;13.408;2024-01-15T04:58:38;4.40;99.90
14014;DHT22;49110;52.584;13.408;2024-01-15T04:59:39;4.50;99.90
14014;DHT22;49110;52.584;13.408;2024-01-15T05:00:40;4.40;99.90
14014;DHT22;49110;52.584;13.408;2024-01-15T05:01:40;4.50;99.90
14014;DHT22;49110;52.584;13.408;2024-01-15T05:02:41;4.40;99.90
14014;DHT22;49110;52.584;13.408;2024-01-15T05:03:41;4.40;99.90
14014;DHT22;49110;52.584;13.408;2024-01-15T05:04:41;4.40;99.90
14014;DHT22;49110;52.584;13.408;2024-01-15T05:05:42;4.40;99.90
14014;DHT22;49110;52.584;13.408;2024-01-15T05:06:43;4.40;99.90
14014;DHT22;49110;52.584;13.408;2024-01-15T05:07:43;4.50;99.90
14014;DHT22;49110;52.584;13.408;2024-01-15T05:08:43;4.50;99.90
14014;DHT22;49110;52.584;13.408;2024-01-15T05:09:44;4.50;99.90
14014;DHT22;49110;52.584;13.408;2024-01-15T05:10:44;4.50;99.90
14014;DHT22;49110;52.584;13.408;2024-01-15T05:11:45;4.40;99.90
14014;DHT22;49110;52.584;13.408;2024-01-15T05:12:46;4.40;99.90
14014;DHT22;49110;52.584;13.408;2024-01-15T05:13:46;4.50;99.90
14014;DHT22;49110;52.584;13.408;2024-01-15T05:14:46;4.40;99.90
14014;DHT22;49110;52.584;13.408;2024-01-15T05:15:47;4.50;99.90
14014;DHT22;49110;52.584;13.408;2024-01-15T05:16:48;4.50;99.90
14014;DHT22;49110;52.584;13.408;2024-01-15T05:17:49;4.50;99.90
14014;DHT22;49110;52.584;13.408;2024-01-15T05:18:50;4.50;99.90
14014;DHT22;49110;52.584;13.408;2024-01-15T05:19:50;4.50;99.90
14014;DHT22;49110;52.584;13.408;2024-01-15T05:20:51;4.50;99.90
14014;DHT22;49110;52.584;13.408;2024-01-15T05:21:52;4.50;99.90
14014;DHT22;49110;52.584;13.408;2024-01-15T05:22:53;4.60;99.90
14014;DHT22;49110;52.584;13.408;2024-01-15T05:23:53;4.60;99.90
14014;DHT22;49110;52.584;13.408;2024-01-15T05:24:54;4.60;99.90
14014;DHT22;49110;52.584;13.408;2024-01-15T05:25:54;4.60;99.90
14014;DHT22;49110;52.584;13.408;2024-01-15T05:26:55;4.60;99.90
14014;DHT22;49110;52.584;13.408;2024-01-15T05:27:55;4.60;99.90
14014;DHT22;49110;52.584;13.408;2024-01-15T05:28:56;4.50;99.90
14014;DHT22;49110;52.584;13.408;2024-01-15T05:29:56;4.50;99.90
14014;DHT22;49110;52.584;13.408;2024-01-15T05:30:56;4.50;99.90
14014;DHT22;49110;52.584;13.408;2024-01-15T05:31:57;4.50;99.90
14014;DHT22;49110;52.584;13.408;2024-01-15T05:32:57;4.40;99.90
14014;DHT22;49110;52.584;13.408;2024-01-15T05:34:00;4.40;99.90
14014;DHT22;49110;52.584;13.408;2024-01-15T05:35:00;4.40;99.90
14014;DHT22;49110;52.584;13.408;2024-01-15T05:36:01;4.40;99.90
14014;DHT22;49110;52.584;13.408;2024-01-15T05:37:02;4.50;99.90
14014;DHT22;49110;52.584;13.408;2024-01-15T05:38:03;4.50;99.90
14014;DHT22;49110;52.584;13.408;2024-01-15T05:39:03;4.50;99.90
14014;DHT22;49110;52.584;13.408;2024-01-15T05:40:04;4.50;99.90
14014;DHT22;49110;52.584;13.408;2024-01-15T05:41:05;4.50;99.90
14014;DHT22;49110;52.584;13.408;2024-01-15T05:42:06;4.50;99.90
14014;DHT22;49110;52.584;13.408;2024-01-15T05:43:06;4.50;99.90
14014;DHT22;49110;52.584;13.408;2024-01-15T05:44:07;4.50;99.90
14014;DHT22;49110;52.584;13.408;2024-01-15T05:45:08;4.50;99.90
14014;DHT22;49110;52.584;13.408;2024-01-15T05:46:09;4.50;99.90
14014;DHT22;49110;52.584;13.408;2024-01-15T05:47:09;4.50;99.90
14014;DHT22;49110;52.584;13.408;2024-01-15T05:48:11;4.50;99.90
14014;DHT22;49110;52.584;13.408;2024-01-15T05:49:12;4.50;99.90
14014;DHT22;49110;52.584;13.408;2024-01-15T05:50:12;4.60;99.90
14014;DHT22;49110;52.584;13.408;2024-01-15T05:51:13;4.50;99.90
14014;DHT22;49110;52.584;13.408;2024-01-15T05:52:13;4.50;99.90
14014;DHT22;49110;52.584;13.408;2024-01-15T05:53:14;4.60;99.90
14014;DHT22;49110;52.584;13.408;2024-01-15T05:54:15;4.60;99.90
14014;DHT22;49110;52.584;13.408;2024-01-15T05:55:15;4.60;99.90
14014;DHT22;49110;52.584;13.408;2024-01-15T05:56:16;4.70;99.90
14014;DHT22;49110;52.584;13.408;2024-01-15T05:57:16;4.70;99.90
14014;DHT22;49110;52.584;13.408;2024-01-15T05:58:17;4.60;99.90
14014;DHT22;49110;52.584;13.408;2024-01-15T05:59:17;4.60;99.90
14014;DHT22;49110;52.584;13.408;2024-01-15T06:00:18;4.60;99.90
14014;DHT22;49110;52.584;13.408;2024-01-15T06:01:18;4.60;99.90
14014;DHT22;49110;52.584;13.408;2024-01-15T06:02:19;4.60;99.90
14014;DHT22;49110;52.584;13.408;2024-01-15T06:03:20;4.50;99.90
14014;DHT22;49110;52.584;13.408;2024-01-15T06:04:20;4.50;99.90
14014;DHT22;49110;52.584;13.408;2024-01-15T06:05:20;4.50;99.90
14014;DHT22;49110;52.584;13.408;2024-01-15T06:06:21;4.40;99.90
14014;DHT22;49110;52.584;13.408;2024-01-15T06:07:22;4.50;99.90
14014;DHT22;49110;52.584;13.408;2024-01-15T06:08:23;4.50;99.90
14014;DHT22;49110;52.584;13.408;2024-01-15T06:09:23;4.50;99.90
14014;DHT22;49110;52.584;13.408;2024-01-15T06:10:24;4.50;99.90
14014;DHT22;49110;52.584;13.408;2024-01-15T06:11:29;4.50;99.90
14014;DHT22;49110;52.584;13.408;2024-01-15T06:12:30;4.50;99.90
14014;DHT22;49110;52.584;13.408;2024-01-15T06:13:31;4.50;99.90
14014;DHT22;49110;52.584;13.408;2024-01-15T06:14:31;4.50;99.90
14014;DHT22;49110;52.584;13.408;2024-01-15T06:15:32;4.50;99.90
14014;DHT22;49110;52.584;13.408;2024-01-15T06:16:32;4.50;99.90
14014;DHT22;49110;52.584;13.408;2024-01-15T06:17:33;4.50;99.90
14014;DHT22;49110;52.584;13.408;2024-01-15T06:18:33;4.50;99.90
14014;DHT22;49110;52.584;13.408;2024-01-15T06:19:34;4.50;99.90
14014;DHT22;49110;52.584;13.408;2024-01-15T06:20:34;4.50;99.90
14014;DHT22;49110;52.584;13.408;2024-01-15T06:21:35;4.60;99.90
14014;DHT22;49110;52.584;13.408;2024-01-15T06:22:35;4.60;99.90
14014;DHT22;49110;52.584;13.408;2024-01-15T06:23:37;4.50;99.90
14014;DHT22;49110;52.584;13.408;2024-01-15T06:24:37;4.50;99.90
14014;DHT22;49110;52.584;13.408;2024-01-15T06:25:38;4.60;99.90
14014;DHT22;49110;52.584;13.408;2024-01-15T06:26:38;4.60;99.90
14014;DHT22;49110;52.584;13.408;2024-01-15T06:27:39;4.60;99.90
14014;DHT22;49110;52.584;13.408;2024-01-15T06:28:40;4.60;99.90
14014;DHT22;49110;52.584;13.408;2024-01-15T06:29:45;4.60;99.90
14014;DHT22;49110;52.584;13.408;2024-01-15T06:30:47;4.70;99.90
14014;DHT22;49110;52.584;13.408;2024-01-15T06:31:48;4.80;99.90
14014;DHT22;49110;52.584;13.408;2024-01-15T06:32:49;4.90;99.90
14014;DHT22;49110;52.584;13.408;2024-01-15T06:33:50;4.90;99.90
14014;DHT22;49110;52.584;13.408;2024-01-15T06:34:51;4.90;99.90
14014;DHT22;49110;52.584;13.408;2024-01-15T06:35:51;4.80;99.90
14014;DHT22;49110;52.584;13.408;2024-01-15T06:36:52;4.80;99.90
14014;DHT22;49110;52.584;13.408;2024-01-15T06:37:53;4.80;99.90
14014;DHT22;49110;52.584;13.408;2024-01-15T06:38:53;4.70;99.90
14014;DHT22;49110;52.584;13.408;2024-01-15T06:39:54;4.70;99.90
14014;DHT22;49110;52.584;13.408;2024-01-15T06:40:54;4.70;99.90
14014;DHT22;49110;52.584;13.408;2024-01-15T06:41:55;4.70;99.90
14014;DHT22;49110;52.584;13.408;2024-01-15T06:42:55;4.60;99.90
14014;DHT22;49110;52.584;13.408;2024-01-15T06:43:55;4.70;99.90
14014;DHT22;49110;52.584;13.408;2024-01-15T06:44:56;4.70;99.90
14014;DHT22;49110;52.584;13.408;2024-01-15T06:45:57;4.70;99.90
14014;DHT22;49110;52.584;13.408;2024-01-15T06:46:57;4.70;99.90
14014;DHT22;49110;52.584;13.408;2024-01-15T06:48:03;4.70;99.90
14014;DHT22;49110;52.584;13.408;2024-01-15T06:49:03;4.60;99.90
14014;DHT22;49110;52.584;13.408;2024-01-15T06:50:04;4.60;99.90
14014;DHT22;49110;52.584;13.408;2024-01-15T06:51:07;4.60;99.90
14014;DHT22;49110;52.584;13.408;2024-01-15T06:52:07;4.60;99.90
14014;DHT22;49110;52.584;13.408;2024-01-15T06:53:08;4.60;99.90
14014;DHT22;49110;52.584;13.408;2024-01-15T06:54:08;4.60;99.90
14014;DHT22;49110;52.584;13.408;2024-01-15T06:55:09;4.60;99.90